Wautoma, Wisconsin
Current Conditions -  °F | °C
As of 7:56 AM on Friday 19 Dec 2014 (Local Time) from KY50 Reporting Station
Overcast Overcast  
Wind Chill: 19°   Ceiling: 2300
Heat Index: 19°   Visibility: 10mi
Dew Point: 17°   Wind: 0mph
Humidity: 92%   Direction: NA
Pressure: 30.31"   Gusts: NA
Location:  44.07°N, 89.29°W
Report Text: KY50 191356Z AUTO 00000KT 10SM OVC023 M07/M08 A3031 RMK AO2 TSNO T10721083 SLP276
Loading
Personal Weather Stations






























Interactive Weather Map New forecast layout! Learn more

10-Day Weather Forecast

Advertisements
Track Severe Weather on mobile